< Cyclone 200305 2003 Season Cyclone 200307 >
Cyclone 200306 (CRAIG)
General InformationDetailed Track InformationTrack Information on Google MapsList of All Images || ResourceGoogle EarthGE AnimationAtom FeedGeoJSON
Detalied Best Track Wind (Time Zone = UTC)
Year Month Day Hour Lat. Long. Wind (kt) Gust (kt) Direc. of Major Storm Axis Radius of Major Storm Axis (nm) Radius of Minor Storm Axis (nm) Direc. of Major Gale Axis Radius of Major Gale Axis (nm) Radius of Minor Gale Axis (nm) Image
2003 3 7 12 -12.9 130.3 10 -1 symmetric - - symmetric - - Image
2003 3 7 18 -12.3 130.0 15 -1 symmetric - - symmetric - - Image
2003 3 7 21 -11.9 129.7 15 -1 symmetric - - symmetric - - Image
2003 3 8 00 -11.6 129.5 15 -1 symmetric - - symmetric - - Image
2003 3 8 03 -11.5 129.2 20 -1 symmetric - - symmetric - - Image
2003 3 8 06 -11.3 129.0 20 -1 symmetric - - symmetric - - Image
2003 3 8 09 -11.2 129.2 20 -1 symmetric - - symmetric - - Image
2003 3 8 12 -11.1 129.3 20 -1 symmetric - - symmetric - - Image
2003 3 8 15 -11.0 129.4 25 -1 symmetric - - symmetric - - Image
2003 3 8 18 -11.1 129.6 25 -1 symmetric - - symmetric - - Image
2003 3 8 21 -11.3 129.4 30 -1 symmetric - - symmetric - - Image
2003 3 9 00 -11.0 129.1 30 -1 symmetric - - symmetric - - Image
2003 3 9 03 -10.7 128.9 35 -1 symmetric - - symmetric - - Image
2003 3 9 06 -10.5 129.0 35 -1 symmetric - - symmetric - - Image
2003 3 9 09 -10.6 129.3 40 -1 symmetric - - symmetric - - Image
2003 3 9 12 -10.6 129.7 40 -1 symmetric - - symmetric - - Image
2003 3 9 15 -10.5 130.0 40 -1 symmetric - - symmetric - - Image
2003 3 9 18 -10.5 130.3 45 -1 symmetric - - symmetric - - Image
2003 3 9 21 -10.7 130.5 45 -1 symmetric - - symmetric - - Image
2003 3 10 00 -10.9 130.6 45 -1 symmetric - - symmetric - - Image
2003 3 10 03 -11.0 130.7 45 -1 symmetric - - symmetric - - Image
2003 3 10 06 -11.1 130.9 50 -1 symmetric - - symmetric - - Image
2003 3 10 08 -11.2 130.8 50 -1 symmetric - - symmetric - - Image
2003 3 10 09 -11.2 130.8 50 -1 symmetric - - symmetric - - Image
2003 3 10 12 -11.3 131.1 50 -1 symmetric - - symmetric - - Image
2003 3 10 15 -11.3 131.3 50 -1 symmetric - - symmetric - - Image
2003 3 10 18 -11.3 131.4 50 -1 symmetric - - symmetric - - Image
2003 3 10 21 -11.4 131.8 55 -1 symmetric - - symmetric - - Image
2003 3 11 00 -11.5 132.2 55 -1 symmetric - - symmetric - - Image
2003 3 11 03 -11.7 132.6 55 -1 symmetric - - symmetric - - Image
2003 3 11 06 -11.8 133.1 50 -1 symmetric - - symmetric - - Image
2003 3 11 09 -11.9 133.7 45 -1 symmetric - - symmetric - - Image
2003 3 11 12 -12.0 134.4 40 -1 symmetric - - symmetric - - Image
2003 3 11 15 -12.0 135.2 35 -1 symmetric - - symmetric - - Image
2003 3 11 18 -12.1 136.1 40 -1 symmetric - - symmetric - - Image
2003 3 11 21 -12.4 137.1 40 -1 symmetric - - symmetric - - Image
2003 3 12 00 -12.9 138.0 45 -1 symmetric - - symmetric - - Image
2003 3 12 03 -13.6 139.0 45 -1 symmetric - - symmetric - - Image
2003 3 12 06 -14.4 140.1 50 -1 symmetric - - symmetric - - Image
2003 3 12 09 -14.9 140.7 50 -1 symmetric - - symmetric - - Image
2003 3 12 12 -15.1 141.0 35 -1 symmetric - - symmetric - - Image
2003 3 12 15 -15.5 141.0 30 -1 symmetric - - symmetric - - Image
2003 3 12 18 -15.3 141.0 25 -1 symmetric - - symmetric - - Image
2003 3 12 21 -15.1 141.4 25 -1 symmetric - - symmetric - - Image
< Cyclone 200305 2003 Season Cyclone 200307 >

Help